Impacts METAR Board
IDs:

KLAS - Las Vegas/McCarran I, NV, US

Updated at: 0700 UTC 18 Sep 2021
Potential Impact None Slight Moderate High
Time 17/19Z 17/20Z 17/21Z 17/22Z 17/23Z 18/00Z 18/01Z 18/02Z 18/03Z 18/04Z 18/05Z 18/06Z 18/07Z
Temp85 86 89 92 91 91 91 89 87 85 83 81 82
Dewpt49 50 50 43 41 45 46 48 48 48 48 47 47
Altim30.04 30.03 30.02 30.00 30.00 29.98 29.97 29.96 29.97 29.99 29.99 30.00 30.00
VIS10 10 10 10 10 10 10 10 10 10 10 10 10
CIG100 110 120 160 160 160 -- -- -- -- -- -- 150
CoverOVCBKNBKNBKNBKNBKNFEWFEWFEWFEWFEWSCTBKN
FltCatVFRVFRVFRVFRVFRVFRVFRVFRVFRVFRVFRVFRVFR
WX--------------------------
WDir170400502030350408010290290260
WSpd3 4 5 7 7 8 5 9 8 6 7 6 3
WGst-- -- -- -- -- -- -- -- -- -- -- -- --
Raw hourly METARs
KLAS 171856Z 17003KT 10SM FEW065 BKN100 OVC150 29/09 A3004 RMK AO2 SLP147 T02940094
KLAS 171956Z 04004KT 10SM BKN110 30/10 A3003 RMK AO2 SLP144 SH DSNT N T03000100
KLAS 172056Z VRB05KT 10SM BKN120 32/10 A3002 RMK AO2 SLP140 T03170100 58003
KLAS 172156Z 05007KT 10SM FEW120 BKN160 33/06 A3000 RMK AO2 LTG DSNT SW SLP133 CB DSNT SW T03330061
KLAS 172256Z 02007KT 10SM FEW120 BKN160 33/05 A3000 RMK AO2 SLP134 T03280050
KLAS 172356Z 03008KT 10SM FEW120 BKN160 33/07 A2998 RMK AO2 SLP128 T03280072 10333 20283 56012
KLAS 180056Z 35005KT 10SM FEW120 FEW160 33/08 A2997 RMK AO2 SLP123 T03280078
KLAS 180156Z 04009KT 10SM FEW120 FEW160 32/09 A2996 RMK AO2 SLP122 T03170089
KLAS 180256Z 08008KT 10SM FEW120 FEW160 31/09 A2997 RMK AO2 SLP125 T03060089 55003
KLAS 180356Z 01006KT 10SM FEW120 FEW160 29/09 A2999 RMK AO2 SLP131 T02940089
KLAS 180456Z 29007KT 10SM FEW120 FEW160 28/09 A2999 RMK AO2 SLP131 T02830089
KLAS 180556Z 29006KT 10SM FEW120 SCT150 27/08 A3000 RMK AO2 SLP133 T02720083 10333 20272 51007
KLAS 180656Z 26003KT 10SM FEW120 BKN150 28/08 A3000 RMK AO2 SLP132 T02780083



Page loaded:  07:52 UTC  |   12:52 AM Pacific  |   01:52 AM Mountain  |   02:52 AM Central  |   03:52 AM Eastern

 

ADVISORIES

FORECASTS

FORECASTS

OBSERVATIONS

USER TOOLS

ABOUT US